San Antonio, Texas
Traffic Map
Current Weather Conditions
San Antonio, Texas
Scattered Clouds
Scattered Clouds
81°
Feels Like: 83°
Wind Chill: 81° Ceiling: Unl
Heat Index: 83° Visibility: 10mi
Dew Point: 67° Wind: 7mph
Humidity: 63% Direction: 30° (NNE)
Pressure: 30.08in Gusts: 0mph
Raw Report DataKSKF 160458Z AUTO 03006KT 10SM SCT055 27/20 A3008 RMK AO2 SLP179 T02710196 $
Traffic Incident Summary
Active as of:
Severity:
Category:
InformationThere was an issue retrieving the traffic information for this location. Please try a different location or try again shortly.
Advertisements
Track Severe Weather on mobile